sensor_id;sensor_type;location;lat;lon;timestamp;P1;durP1;ratioP1;P2;durP2;ratioP2
25497;SDS011;13406;53.380;7.226;2023-06-24T09:34:08;8.57;;;7.20;;
25497;SDS011;13406;53.380;7.226;2023-06-24T09:36:41;7.97;;;7.17;;
25497;SDS011;13406;53.380;7.226;2023-06-24T09:39:07;9.30;;;7.03;;
25497;SDS011;13406;53.380;7.226;2023-06-24T09:41:33;14.63;;;6.10;;
25497;SDS011;13406;53.380;7.226;2023-06-24T09:43:59;7.67;;;6.30;;
25497;SDS011;13406;53.380;7.226;2023-06-24T09:46:25;9.73;;;6.47;;
25497;SDS011;13406;53.380;7.226;2023-06-24T09:48:53;12.77;;;7.53;;
25497;SDS011;13406;53.380;7.226;2023-06-24T09:51:18;7.83;;;6.87;;
25497;SDS011;13406;53.380;7.226;2023-06-24T09:53:44;11.33;;;7.30;;
25497;SDS011;13406;53.380;7.226;2023-06-24T09:56:10;10.03;;;6.13;;
25497;SDS011;13406;53.380;7.226;2023-06-24T09:58:39;8.67;;;6.60;;
25497;SDS011;13406;53.380;7.226;2023-06-24T10:01:06;8.90;;;8.00;;
25497;SDS011;13406;53.380;7.226;2023-06-24T10:03:32;9.43;;;8.33;;
25497;SDS011;13406;53.380;7.226;2023-06-24T10:06:00;9.97;;;7.80;;
25497;SDS011;13406;53.380;7.226;2023-06-24T10:08:27;9.23;;;6.80;;
25497;SDS011;13406;53.380;7.226;2023-06-24T10:10:55;8.80;;;7.00;;
25497;SDS011;13406;53.380;7.226;2023-06-24T10:13:20;10.30;;;8.07;;
25497;SDS011;13406;53.380;7.226;2023-06-24T10:15:46;9.57;;;7.03;;
25497;SDS011;13406;53.380;7.226;2023-06-24T10:20:55;10.40;;;7.63;;
25497;SDS011;13406;53.380;7.226;2023-06-24T10:23:21;9.37;;;8.00;;
25497;SDS011;13406;53.380;7.226;2023-06-24T10:25:46;12.63;;;7.57;;
25497;SDS011;13406;53.380;7.226;2023-06-24T10:28:13;8.17;;;6.47;;
25497;SDS011;13406;53.380;7.226;2023-06-24T10:30:38;12.90;;;8.07;;
25497;SDS011;13406;53.380;7.226;2023-06-24T10:33:03;9.90;;;7.37;;
25497;SDS011;13406;53.380;7.226;2023-06-24T10:35:36;10.10;;;5.80;;
25497;SDS011;13406;53.380;7.226;2023-06-24T10:38:07;8.83;;;6.33;;
25497;SDS011;13406;53.380;7.226;2023-06-24T10:40:36;8.57;;;6.03;;
25497;SDS011;13406;53.380;7.226;2023-06-24T10:43:22;11.83;;;6.17;;
25497;SDS011;13406;53.380;7.226;2023-06-24T10:45:51;7.17;;;5.30;;
25497;SDS011;13406;53.380;7.226;2023-06-24T10:48:17;11.67;;;5.70;;
25497;SDS011;13406;53.380;7.226;2023-06-24T10:50:46;8.27;;;4.97;;
25497;SDS011;13406;53.380;7.226;2023-06-24T10:53:13;6.10;;;4.73;;
25497;SDS011;13406;53.380;7.226;2023-06-24T10:55:39;9.03;;;5.00;;
25497;SDS011;13406;53.380;7.226;2023-06-24T10:58:08;5.80;;;4.17;;
25497;SDS011;13406;53.380;7.226;2023-06-24T11:00:34;7.30;;;5.43;;
25497;SDS011;13406;53.380;7.226;2023-06-24T11:03:13;7.93;;;5.30;;
25497;SDS011;13406;53.380;7.226;2023-06-24T11:05:40;7.70;;;5.30;;
25497;SDS011;13406;53.380;7.226;2023-06-24T11:08:10;7.30;;;5.90;;
25497;SDS011;13406;53.380;7.226;2023-06-24T11:10:43;8.43;;;5.17;;
25497;SDS011;13406;53.380;7.226;2023-06-24T11:13:09;6.07;;;4.73;;
25497;SDS011;13406;53.380;7.226;2023-06-24T11:15:35;7.07;;;4.97;;
25497;SDS011;13406;53.380;7.226;2023-06-24T11:18:04;5.67;;;4.70;;
25497;SDS011;13406;53.380;7.226;2023-06-24T11:20:29;10.33;;;6.07;;
25497;SDS011;13406;53.380;7.226;2023-06-24T11:22:55;4.70;;;4.10;;
25497;SDS011;13406;53.380;7.226;2023-06-24T11:25:21;5.90;;;4.50;;
25497;SDS011;13406;53.380;7.226;2023-06-24T11:27:47;5.47;;;4.20;;
25497;SDS011;13406;53.380;7.226;2023-06-24T11:30:15;9.77;;;4.30;;
25497;SDS011;13406;53.380;7.226;2023-06-24T11:32:42;7.47;;;4.80;;
25497;SDS011;13406;53.380;7.226;2023-06-24T11:35:10;7.43;;;4.97;;
25497;SDS011;13406;53.380;7.226;2023-06-24T11:37:37;7.10;;;4.63;;
25497;SDS011;13406;53.380;7.226;2023-06-24T11:40:12;5.67;;;4.33;;
25497;SDS011;13406;53.380;7.226;2023-06-24T11:42:41;6.23;;;4.47;;
25497;SDS011;13406;53.380;7.226;2023-06-24T11:45:10;5.97;;;4.30;;
25497;SDS011;13406;53.380;7.226;2023-06-24T11:47:38;5.50;;;4.17;;
25497;SDS011;13406;53.380;7.226;2023-06-24T11:50:08;7.23;;;4.17;;
25497;SDS011;13406;53.380;7.226;2023-06-24T11:52:49;6.50;;;4.23;;
25497;SDS011;13406;53.380;7.226;2023-06-24T11:55:19;6.90;;;4.23;;
25497;SDS011;13406;53.380;7.226;2023-06-24T11:57:51;5.03;;;3.80;;
25497;SDS011;13406;53.380;7.226;2023-06-24T12:00:20;5.73;;;3.73;;
25497;SDS011;13406;53.380;7.226;2023-06-24T12:02:58;5.30;;;4.13;;
25497;SDS011;13406;53.380;7.226;2023-06-24T12:05:32;5.10;;;3.40;;
25497;SDS011;13406;53.380;7.226;2023-06-24T12:07:59;6.10;;;4.13;;
25497;SDS011;13406;53.380;7.226;2023-06-24T12:10:27;7.50;;;4.00;;
25497;SDS011;13406;53.380;7.226;2023-06-24T12:12:54;4.17;;;3.40;;
25497;SDS011;13406;53.380;7.226;2023-06-24T12:15:20;5.53;;;3.83;;
25497;SDS011;13406;53.380;7.226;2023-06-24T12:17:51;8.30;;;4.80;;
25497;SDS011;13406;53.380;7.226;2023-06-24T12:20:17;5.30;;;4.20;;
25497;SDS011;13406;53.380;7.226;2023-06-24T12:22:44;6.27;;;4.17;;
25497;SDS011;13406;53.380;7.226;2023-06-24T12:25:10;6.90;;;3.70;;
25497;SDS011;13406;53.380;7.226;2023-06-24T12:27:38;6.77;;;4.47;;
25497;SDS011;13406;53.380;7.226;2023-06-24T12:30:06;4.53;;;4.03;;
25497;SDS011;13406;53.380;7.226;2023-06-24T12:32:41;6.17;;;4.10;;
25497;SDS011;13406;53.380;7.226;2023-06-24T12:35:09;6.00;;;3.73;;
25497;SDS011;13406;53.380;7.226;2023-06-24T12:37:35;6.27;;;4.40;;
25497;SDS011;13406;53.380;7.226;2023-06-24T12:40:02;6.00;;;3.60;;
25497;SDS011;13406;53.380;7.226;2023-06-24T12:42:28;5.37;;;4.40;;
25497;SDS011;13406;53.380;7.226;2023-06-24T12:44:57;5.70;;;4.30;;
25497;SDS011;13406;53.380;7.226;2023-06-24T12:47:28;6.27;;;4.40;;
25497;SDS011;13406;53.380;7.226;2023-06-24T12:49:56;4.97;;;4.20;;
25497;SDS011;13406;53.380;7.226;2023-06-24T12:52:22;6.90;;;4.63;;
25497;SDS011;13406;53.380;7.226;2023-06-24T12:54:51;6.97;;;4.28;;
25497;SDS011;13406;53.380;7.226;2023-06-24T12:57:16;5.97;;;4.53;;
25497;SDS011;13406;53.380;7.226;2023-06-24T12:59:42;6.37;;;4.50;;
25497;SDS011;13406;53.380;7.226;2023-06-24T13:02:07;5.00;;;4.40;;
25497;SDS011;13406;53.380;7.226;2023-06-24T13:04:32;7.23;;;4.33;;
25497;SDS011;13406;53.380;7.226;2023-06-24T13:06:58;6.70;;;3.97;;
25497;SDS011;13406;53.380;7.226;2023-06-24T13:09:23;21.90;;;6.30;;
25497;SDS011;13406;53.380;7.226;2023-06-24T13:11:49;5.80;;;5.17;;
25497;SDS011;13406;53.380;7.226;2023-06-24T13:14:15;6.10;;;5.40;;
25497;SDS011;13406;53.380;7.226;2023-06-24T13:16:41;6.30;;;5.40;;
25497;SDS011;13406;53.380;7.226;2023-06-24T13:19:06;7.50;;;5.23;;
25497;SDS011;13406;53.380;7.226;2023-06-24T13:21:32;11.70;;;4.80;;
25497;SDS011;13406;53.380;7.226;2023-06-24T13:23:57;7.30;;;5.40;;
25497;SDS011;13406;53.380;7.226;2023-06-24T13:26:23;8.90;;;5.90;;
25497;SDS011;13406;53.380;7.226;2023-06-24T13:28:49;6.33;;;5.33;;
25497;SDS011;13406;53.380;7.226;2023-06-24T13:31:15;8.30;;;6.10;;
25497;SDS011;13406;53.380;7.226;2023-06-24T13:33:41;5.63;;;4.70;;
25497;SDS011;13406;53.380;7.226;2023-06-24T13:36:07;6.17;;;5.13;;
25497;SDS011;13406;53.380;7.226;2023-06-24T13:38:36;8.60;;;6.40;;
25497;SDS011;13406;53.380;7.226;2023-06-24T13:41:02;10.83;;;7.80;;
25497;SDS011;13406;53.380;7.226;2023-06-24T13:43:28;6.80;;;6.00;;
25497;SDS011;13406;53.380;7.226;2023-06-24T13:45:53;9.47;;;7.63;;
25497;SDS011;13406;53.380;7.226;2023-06-24T13:48:19;8.83;;;6.97;;
25497;SDS011;13406;53.380;7.226;2023-06-24T13:50:44;10.03;;;7.27;;
25497;SDS011;13406;53.380;7.226;2023-06-24T13:53:10;11.60;;;7.80;;
25497;SDS011;13406;53.380;7.226;2023-06-24T13:55:35;14.00;;;7.00;;
25497;SDS011;13406;53.380;7.226;2023-06-24T13:58:01;11.23;;;6.80;;
25497;SDS011;13406;53.380;7.226;2023-06-24T14:00:27;13.30;;;7.67;;
25497;SDS011;13406;53.380;7.226;2023-06-24T14:02:53;7.97;;;6.80;;
25497;SDS011;13406;53.380;7.226;2023-06-24T14:05:18;10.30;;;8.30;;
25497;SDS011;13406;53.380;7.226;2023-06-24T14:07:44;11.70;;;7.60;;
25497;SDS011;13406;53.380;7.226;2023-06-24T14:10:09;9.20;;;7.50;;
25497;SDS011;13406;53.380;7.226;2023-06-24T14:12:35;9.70;;;6.73;;
25497;SDS011;13406;53.380;7.226;2023-06-24T14:15:00;8.63;;;7.07;;
25497;SDS011;13406;53.380;7.226;2023-06-24T14:17:25;8.40;;;6.90;;
25497;SDS011;13406;53.380;7.226;2023-06-24T14:19:52;8.57;;;6.53;;
25497;SDS011;13406;53.380;7.226;2023-06-24T14:22:17;9.47;;;6.80;;
25497;SDS011;13406;53.380;7.226;2023-06-24T14:24:42;7.17;;;5.63;;
25497;SDS011;13406;53.380;7.226;2023-06-24T14:27:08;8.67;;;6.57;;
25497;SDS011;13406;53.380;7.226;2023-06-24T14:29:34;9.17;;;7.30;;
25497;SDS011;13406;53.380;7.226;2023-06-24T14:31:59;8.43;;;5.90;;
25497;SDS011;13406;53.380;7.226;2023-06-24T14:34:25;7.70;;;5.93;;
25497;SDS011;13406;53.380;7.226;2023-06-24T14:36:50;6.83;;;5.70;;
25497;SDS011;13406;53.380;7.226;2023-06-24T14:39:16;9.27;;;5.73;;
25497;SDS011;13406;53.380;7.226;2023-06-24T14:41:44;9.30;;;5.70;;
25497;SDS011;13406;53.380;7.226;2023-06-24T14:44:09;9.47;;;5.37;;
25497;SDS011;13406;53.380;7.226;2023-06-24T14:46:35;9.23;;;6.13;;
25497;SDS011;13406;53.380;7.226;2023-06-24T14:49:00;10.83;;;5.40;;
25497;SDS011;13406;53.380;7.226;2023-06-24T14:51:26;8.33;;;4.10;;
25497;SDS011;13406;53.380;7.226;2023-06-24T14:53:51;8.27;;;4.60;;
25497;SDS011;13406;53.380;7.226;2023-06-24T14:56:17;11.90;;;5.20;;
25497;SDS011;13406;53.380;7.226;2023-06-24T14:58:42;7.43;;;5.23;;
25497;SDS011;13406;53.380;7.226;2023-06-24T15:01:07;5.10;;;4.20;;
25497;SDS011;13406;53.380;7.226;2023-06-24T15:03:33;7.30;;;4.60;;
25497;SDS011;13406;53.380;7.226;2023-06-24T15:05:58;8.90;;;4.33;;
25497;SDS011;13406;53.380;7.226;2023-06-24T15:08:24;5.80;;;2.93;;
25497;SDS011;13406;53.380;7.226;2023-06-24T15:10:51;5.77;;;3.60;;
25497;SDS011;13406;53.380;7.226;2023-06-24T15:13:17;9.80;;;3.50;;
25497;SDS011;13406;53.380;7.226;2023-06-24T15:15:42;11.93;;;4.50;;
25497;SDS011;13406;53.380;7.226;2023-06-24T15:18:07;4.50;;;3.40;;
25497;SDS011;13406;53.380;7.226;2023-06-24T15:20:33;5.00;;;3.93;;
25497;SDS011;13406;53.380;7.226;2023-06-24T15:22:58;5.53;;;3.40;;
25497;SDS011;13406;53.380;7.226;2023-06-24T15:25:24;5.40;;;4.00;;
25497;SDS011;13406;53.380;7.226;2023-06-24T15:27:49;6.23;;;4.13;;
25497;SDS011;13406;53.380;7.226;2023-06-24T15:30:15;6.57;;;4.20;;
25497;SDS011;13406;53.380;7.226;2023-06-24T15:32:41;9.20;;;6.73;;
25497;SDS011;13406;53.380;7.226;2023-06-24T15:35:07;5.43;;;4.93;;
25497;SDS011;13406;53.380;7.226;2023-06-24T15:37:33;6.50;;;5.00;;
25497;SDS011;13406;53.380;7.226;2023-06-24T15:39:58;6.20;;;3.90;;
25497;SDS011;13406;53.380;7.226;2023-06-24T15:42:24;5.40;;;3.93;;
25497;SDS011;13406;53.380;7.226;2023-06-24T15:44:49;5.73;;;3.63;;
25497;SDS011;13406;53.380;7.226;2023-06-24T15:47:17;4.80;;;3.17;;
25497;SDS011;13406;53.380;7.226;2023-06-24T15:49:42;7.63;;;4.60;;
25497;SDS011;13406;53.380;7.226;2023-06-24T15:52:08;5.90;;;5.17;;
25497;SDS011;13406;53.380;7.226;2023-06-24T15:54:33;4.30;;;3.70;;
25497;SDS011;13406;53.380;7.226;2023-06-24T15:56:59;4.70;;;3.70;;
25497;SDS011;13406;53.380;7.226;2023-06-24T15:59:24;5.00;;;3.90;;
25497;SDS011;13406;53.380;7.226;2023-06-24T16:01:50;3.90;;;3.37;;
25497;SDS011;13406;53.380;7.226;2023-06-24T16:04:15;4.73;;;4.00;;
25497;SDS011;13406;53.380;7.226;2023-06-24T16:06:40;7.27;;;3.90;;
25497;SDS011;13406;53.380;7.226;2023-06-24T16:09:06;7.53;;;4.50;;
25497;SDS011;13406;53.380;7.226;2023-06-24T16:11:31;15.90;;;6.33;;
25497;SDS011;13406;53.380;7.226;2023-06-24T16:14:03;9.40;;;7.80;;
25497;SDS011;13406;53.380;7.226;2023-06-24T16:16:35;10.90;;;8.20;;
25497;SDS011;13406;53.380;7.226;2023-06-24T16:19:00;15.53;;;8.63;;
25497;SDS011;13406;53.380;7.226;2023-06-24T16:21:26;8.27;;;6.20;;
25497;SDS011;13406;53.380;7.226;2023-06-24T16:23:52;18.90;;;8.57;;
25497;SDS011;13406;53.380;7.226;2023-06-24T16:26:17;11.33;;;6.93;;
25497;SDS011;13406;53.380;7.226;2023-06-24T16:28:43;12.70;;;8.67;;
25497;SDS011;13406;53.380;7.226;2023-06-24T16:31:08;11.47;;;8.30;;
25497;SDS011;13406;53.380;7.226;2023-06-24T16:33:33;11.73;;;7.67;;
25497;SDS011;13406;53.380;7.226;2023-06-24T16:35:59;7.80;;;4.47;;
25497;SDS011;13406;53.380;7.226;2023-06-24T16:38:25;6.00;;;5.00;;
25497;SDS011;13406;53.380;7.226;2023-06-24T16:40:50;10.97;;;6.87;;
25497;SDS011;13406;53.380;7.226;2023-06-24T16:43:16;8.43;;;6.53;;
25497;SDS011;13406;53.380;7.226;2023-06-24T16:45:41;8.17;;;5.90;;
25497;SDS011;13406;53.380;7.226;2023-06-24T16:48:06;7.97;;;5.07;;
25497;SDS011;13406;53.380;7.226;2023-06-24T16:50:32;11.87;;;6.30;;
25497;SDS011;13406;53.380;7.226;2023-06-24T16:52:59;6.70;;;5.13;;
25497;SDS011;13406;53.380;7.226;2023-06-24T16:55:25;6.93;;;5.13;;
25497;SDS011;13406;53.380;7.226;2023-06-24T16:57:51;7.07;;;5.53;;
25497;SDS011;13406;53.380;7.226;2023-06-24T17:00:16;8.40;;;5.20;;
25497;SDS011;13406;53.380;7.226;2023-06-24T17:02:42;7.87;;;5.20;;
25497;SDS011;13406;53.380;7.226;2023-06-24T17:05:07;10.37;;;5.53;;
25497;SDS011;13406;53.380;7.226;2023-06-24T17:07:33;13.60;;;4.87;;
25497;SDS011;13406;53.380;7.226;2023-06-24T17:09:58;7.17;;;4.80;;
25497;SDS011;13406;53.380;7.226;2023-06-24T17:12:24;12.63;;;5.20;;
25497;SDS011;13406;53.380;7.226;2023-06-24T17:14:49;10.30;;;4.77;;
25497;SDS011;13406;53.380;7.226;2023-06-24T17:17:15;5.33;;;4.37;;
25497;SDS011;13406;53.380;7.226;2023-06-24T17:19:40;6.20;;;4.43;;
25497;SDS011;13406;53.380;7.226;2023-06-24T17:22:06;13.83;;;4.83;;
25497;SDS011;13406;53.380;7.226;2023-06-24T17:24:34;5.67;;;3.93;;
25497;SDS011;13406;53.380;7.226;2023-06-24T17:26:59;4.40;;;3.97;;
25497;SDS011;13406;53.380;7.226;2023-06-24T17:29:25;17.00;;;3.90;;
25497;SDS011;13406;53.380;7.226;2023-06-24T17:31:50;4.00;;;3.50;;
25497;SDS011;13406;53.380;7.226;2023-06-24T17:34:15;6.33;;;3.87;;
25497;SDS011;13406;53.380;7.226;2023-06-24T17:36:41;3.87;;;3.27;;
25497;SDS011;13406;53.380;7.226;2023-06-24T17:39:06;4.00;;;3.40;;
25497;SDS011;13406;53.380;7.226;2023-06-24T17:41:31;6.20;;;3.60;;
25497;SDS011;13406;53.380;7.226;2023-06-24T17:43:57;7.43;;;4.30;;
25497;SDS011;13406;53.380;7.226;2023-06-24T17:46:22;4.20;;;3.07;;
25497;SDS011;13406;53.380;7.226;2023-06-24T17:48:48;7.73;;;4.50;;
25497;SDS011;13406;53.380;7.226;2023-06-24T17:51:13;9.63;;;3.70;;
25497;SDS011;13406;53.380;7.226;2023-06-24T17:53:38;4.80;;;3.70;;
25497;SDS011;13406;53.380;7.226;2023-06-24T17:56:04;4.50;;;3.60;;
25497;SDS011;13406;53.380;7.226;2023-06-24T17:58:29;4.67;;;2.93;;
25497;SDS011;13406;53.380;7.226;2023-06-24T18:00:55;4.53;;;3.30;;
25497;SDS011;13406;53.380;7.226;2023-06-24T18:03:20;4.90;;;3.47;;
25497;SDS011;13406;53.380;7.226;2023-06-24T18:05:48;3.73;;;3.10;;
25497;SDS011;13406;53.380;7.226;2023-06-24T18:08:14;6.27;;;3.70;;
25497;SDS011;13406;53.380;7.226;2023-06-24T18:10:39;6.57;;;3.60;;
25497;SDS011;13406;53.380;7.226;2023-06-24T18:13:06;5.17;;;3.30;;
25497;SDS011;13406;53.380;7.226;2023-06-24T18:15:31;10.43;;;3.20;;
25497;SDS011;13406;53.380;7.226;2023-06-24T18:17:57;4.60;;;3.50;;
25497;SDS011;13406;53.380;7.226;2023-06-24T18:20:22;3.83;;;3.40;;
25497;SDS011;13406;53.380;7.226;2023-06-24T18:22:47;4.20;;;3.13;;
25497;SDS011;13406;53.380;7.226;2023-06-24T18:25:13;4.87;;;3.67;;
25497;SDS011;13406;53.380;7.226;2023-06-24T18:27:38;5.93;;;4.17;;
25497;SDS011;13406;53.380;7.226;2023-06-24T18:30:07;6.33;;;3.87;;
25497;SDS011;13406;53.380;7.226;2023-06-24T18:32:34;5.67;;;4.00;;
25497;SDS011;13406;53.380;7.226;2023-06-24T18:34:59;7.13;;;3.70;;
25497;SDS011;13406;53.380;7.226;2023-06-24T18:37:25;4.07;;;3.50;;
25497;SDS011;13406;53.380;7.226;2023-06-24T18:39:50;3.80;;;3.33;;
25497;SDS011;13406;53.380;7.226;2023-06-24T18:42:16;5.03;;;3.73;;
25497;SDS011;13406;53.380;7.226;2023-06-24T18:44:41;5.10;;;3.33;;
25497;SDS011;13406;53.380;7.226;2023-06-24T18:47:06;6.60;;;3.47;;
25497;SDS011;13406;53.380;7.226;2023-06-24T18:49:32;4.43;;;3.40;;
25497;SDS011;13406;53.380;7.226;2023-06-24T18:51:57;7.40;;;3.10;;
25497;SDS011;13406;53.380;7.226;2023-06-24T18:54:22;4.60;;;3.37;;
25497;SDS011;13406;53.380;7.226;2023-06-24T18:56:50;5.30;;;3.87;;
25497;SDS011;13406;53.380;7.226;2023-06-24T18:59:15;5.30;;;3.60;;
25497;SDS011;13406;53.380;7.226;2023-06-24T19:01:40;4.40;;;3.80;;
25497;SDS011;13406;53.380;7.226;2023-06-24T19:04:10;4.77;;;4.27;;
25497;SDS011;13406;53.380;7.226;2023-06-24T19:06:36;5.90;;;4.37;;
25497;SDS011;13406;53.380;7.226;2023-06-24T19:09:01;4.83;;;3.93;;
25497;SDS011;13406;53.380;7.226;2023-06-24T19:11:27;5.20;;;3.57;;
25497;SDS011;13406;53.380;7.226;2023-06-24T19:13:52;5.93;;;4.47;;
25497;SDS011;13406;53.380;7.226;2023-06-24T19:16:18;5.97;;;4.20;;
25497;SDS011;13406;53.380;7.226;2023-06-24T19:18:44;9.20;;;4.33;;
25497;SDS011;13406;53.380;7.226;2023-06-24T19:21:09;7.77;;;4.13;;
25497;SDS011;13406;53.380;7.226;2023-06-24T19:23:34;7.83;;;3.90;;
25497;SDS011;13406;53.380;7.226;2023-06-24T19:26:00;5.50;;;4.07;;
25497;SDS011;13406;53.380;7.226;2023-06-24T19:28:25;3.73;;;3.40;;
25497;SDS011;13406;53.380;7.226;2023-06-24T19:30:51;5.43;;;4.13;;
25497;SDS011;13406;53.380;7.226;2023-06-24T19:33:16;6.73;;;3.93;;
25497;SDS011;13406;53.380;7.226;2023-06-24T19:35:42;4.50;;;4.10;;
25497;SDS011;13406;53.380;7.226;2023-06-24T19:38:07;5.70;;;4.10;;
25497;SDS011;13406;53.380;7.226;2023-06-24T19:40:33;5.90;;;4.00;;
25497;SDS011;13406;53.380;7.226;2023-06-24T19:42:58;6.50;;;4.00;;
25497;SDS011;13406;53.380;7.226;2023-06-24T19:45:23;7.27;;;4.10;;
25497;SDS011;13406;53.380;7.226;2023-06-24T19:47:51;6.33;;;4.03;;
25497;SDS011;13406;53.380;7.226;2023-06-24T19:50:17;6.40;;;4.50;;
25497;SDS011;13406;53.380;7.226;2023-06-24T19:52:43;9.93;;;4.47;;
25497;SDS011;13406;53.380;7.226;2023-06-24T19:55:09;5.90;;;4.47;;
25497;SDS011;13406;53.380;7.226;2023-06-24T19:57:35;7.50;;;4.50;;
25497;SDS011;13406;53.380;7.226;2023-06-24T20:00:04;5.40;;;4.00;;
25497;SDS011;13406;53.380;7.226;2023-06-24T20:02:34;6.37;;;3.90;;
25497;SDS011;13406;53.380;7.226;2023-06-24T20:04:59;6.00;;;4.27;;
25497;SDS011;13406;53.380;7.226;2023-06-24T20:07:25;6.50;;;3.97;;
25497;SDS011;13406;53.380;7.226;2023-06-24T20:09:51;6.30;;;4.00;;
25497;SDS011;13406;53.380;7.226;2023-06-24T20:12:16;5.43;;;3.90;;
25497;SDS011;13406;53.380;7.226;2023-06-24T20:14:42;5.80;;;3.97;;
25497;SDS011;13406;53.380;7.226;2023-06-24T20:17:07;5.97;;;3.90;;
25497;SDS011;13406;53.380;7.226;2023-06-24T20:19:33;5.60;;;3.63;;
25497;SDS011;13406;53.380;7.226;2023-06-24T20:21:58;5.60;;;4.50;;
25497;SDS011;13406;53.380;7.226;2023-06-24T20:24:24;9.47;;;5.10;;
25497;SDS011;13406;53.380;7.226;2023-06-24T20:26:50;6.90;;;4.93;;
25497;SDS011;13406;53.380;7.226;2023-06-24T20:29:16;5.57;;;4.27;;
25497;SDS011;13406;53.380;7.226;2023-06-24T20:31:41;7.80;;;4.57;;
25497;SDS011;13406;53.380;7.226;2023-06-24T20:34:07;6.70;;;4.97;;
25497;SDS011;13406;53.380;7.226;2023-06-24T20:36:32;5.97;;;4.80;;
25497;SDS011;13406;53.380;7.226;2023-06-24T20:38:58;7.13;;;5.07;;
25497;SDS011;13406;53.380;7.226;2023-06-24T20:41:24;7.73;;;4.30;;
25497;SDS011;13406;53.380;7.226;2023-06-24T20:43:52;6.23;;;4.53;;
25497;SDS011;13406;53.380;7.226;2023-06-24T20:46:19;6.83;;;4.20;;
25497;SDS011;13406;53.380;7.226;2023-06-24T20:48:45;8.23;;;5.57;;
25497;SDS011;13406;53.380;7.226;2023-06-24T20:51:14;6.67;;;5.40;;
25497;SDS011;13406;53.380;7.226;2023-06-24T20:53:40;7.83;;;5.87;;
25497;SDS011;13406;53.380;7.226;2023-06-24T20:56:06;6.70;;;5.70;;
25497;SDS011;13406;53.380;7.226;2023-06-24T20:58:33;7.67;;;5.10;;
25497;SDS011;13406;53.380;7.226;2023-06-24T21:00:59;7.50;;;6.17;;
25497;SDS011;13406;53.380;7.226;2023-06-24T21:03:24;8.27;;;6.00;;
25497;SDS011;13406;53.380;7.226;2023-06-24T21:05:49;8.10;;;5.80;;
25497;SDS011;13406;53.380;7.226;2023-06-24T21:08:15;10.10;;;5.50;;
25497;SDS011;13406;53.380;7.226;2023-06-24T21:10:40;8.27;;;5.80;;
25497;SDS011;13406;53.380;7.226;2023-06-24T21:13:06;8.43;;;5.67;;
25497;SDS011;13406;53.380;7.226;2023-06-24T21:15:31;7.43;;;6.23;;
25497;SDS011;13406;53.380;7.226;2023-06-24T21:17:57;8.40;;;7.27;;
25497;SDS011;13406;53.380;7.226;2023-06-24T21:20:22;8.10;;;6.77;;
25497;SDS011;13406;53.380;7.226;2023-06-24T21:22:48;7.40;;;5.73;;
25497;SDS011;13406;53.380;7.226;2023-06-24T21:25:13;7.70;;;5.60;;
25497;SDS011;13406;53.380;7.226;2023-06-24T21:27:39;6.60;;;4.70;;
25497;SDS011;13406;53.380;7.226;2023-06-24T21:30:05;11.57;;;5.23;;
25497;SDS011;13406;53.380;7.226;2023-06-24T21:32:31;6.80;;;5.10;;
25497;SDS011;13406;53.380;7.226;2023-06-24T21:34:57;7.20;;;4.90;;
25497;SDS011;13406;53.380;7.226;2023-06-24T21:37:23;7.90;;;5.23;;
25497;SDS011;13406;53.380;7.226;2023-06-24T21:39:48;6.40;;;4.67;;
25497;SDS011;13406;53.380;7.226;2023-06-24T21:42:14;6.70;;;4.97;;
25497;SDS011;13406;53.380;7.226;2023-06-24T21:44:39;7.90;;;5.60;;
25497;SDS011;13406;53.380;7.226;2023-06-24T21:47:04;6.40;;;5.33;;
25497;SDS011;13406;53.380;7.226;2023-06-24T21:49:30;5.80;;;5.20;;
25497;SDS011;13406;53.380;7.226;2023-06-24T21:51:56;7.30;;;5.30;;
25497;SDS011;13406;53.380;7.226;2023-06-24T21:54:23;8.80;;;5.70;;
25497;SDS011;13406;53.380;7.226;2023-06-24T21:56:48;12.17;;;6.47;;
25497;SDS011;13406;53.380;7.226;2023-06-24T21:59:13;8.90;;;6.37;;
25497;SDS011;13406;53.380;7.226;2023-06-24T22:01:39;7.80;;;7.03;;
25497;SDS011;13406;53.380;7.226;2023-06-24T22:04:04;9.07;;;7.37;;
25497;SDS011;13406;53.380;7.226;2023-06-24T22:06:30;11.33;;;7.87;;
25497;SDS011;13406;53.380;7.226;2023-06-24T22:08:55;10.90;;;7.90;;
25497;SDS011;13406;53.380;7.226;2023-06-24T22:11:21;9.80;;;7.30;;
25497;SDS011;13406;53.380;7.226;2023-06-24T22:13:47;7.47;;;6.73;;
25497;SDS011;13406;53.380;7.226;2023-06-24T22:16:12;8.73;;;7.63;;
25497;SDS011;13406;53.380;7.226;2023-06-24T22:18:38;7.37;;;6.67;;
25497;SDS011;13406;53.380;7.226;2023-06-24T22:21:03;10.50;;;7.20;;
25497;SDS011;13406;53.380;7.226;2023-06-24T22:23:29;8.63;;;6.33;;
25497;SDS011;13406;53.380;7.226;2023-06-24T22:25:54;9.43;;;6.67;;
25497;SDS011;13406;53.380;7.226;2023-06-24T22:28:20;10.10;;;6.80;;
25497;SDS011;13406;53.380;7.226;2023-06-24T22:30:45;8.93;;;6.80;;
25497;SDS011;13406;53.380;7.226;2023-06-24T22:33:11;7.60;;;5.80;;
25497;SDS011;13406;53.380;7.226;2023-06-24T22:35:36;10.53;;;5.80;;
25497;SDS011;13406;53.380;7.226;2023-06-24T22:38:01;8.97;;;6.47;;
25497;SDS011;13406;53.380;7.226;2023-06-24T22:40:27;7.07;;;5.63;;
25497;SDS011;13406;53.380;7.226;2023-06-24T22:42:52;10.13;;;6.47;;
25497;SDS011;13406;53.380;7.226;2023-06-24T22:45:18;8.40;;;6.80;;
25497;SDS011;13406;53.380;7.226;2023-06-24T22:47:43;7.73;;;6.40;;
25497;SDS011;13406;53.380;7.226;2023-06-24T22:50:09;7.90;;;6.43;;
25497;SDS011;13406;53.380;7.226;2023-06-24T22:52:35;7.87;;;5.47;;
25497;SDS011;13406;53.380;7.226;2023-06-24T22:55:01;6.70;;;6.00;;
25497;SDS011;13406;53.380;7.226;2023-06-24T22:57:27;8.47;;;6.37;;
25497;SDS011;13406;53.380;7.226;2023-06-24T22:59:53;6.30;;;5.47;;
25497;SDS011;13406;53.380;7.226;2023-06-24T23:02:18;9.27;;;6.37;;
25497;SDS011;13406;53.380;7.226;2023-06-24T23:04:44;7.10;;;6.10;;
25497;SDS011;13406;53.380;7.226;2023-06-24T23:07:09;7.80;;;5.90;;
25497;SDS011;13406;53.380;7.226;2023-06-24T23:09:35;7.60;;;6.00;;
25497;SDS011;13406;53.380;7.226;2023-06-24T23:12:02;8.33;;;6.17;;
25497;SDS011;13406;53.380;7.226;2023-06-24T23:14:28;7.40;;;5.93;;
25497;SDS011;13406;53.380;7.226;2023-06-24T23:16:57;6.70;;;5.80;;
25497;SDS011;13406;53.380;7.226;2023-06-24T23:19:23;7.23;;;5.73;;
25497;SDS011;13406;53.380;7.226;2023-06-24T23:21:49;9.63;;;7.80;;
25497;SDS011;13406;53.380;7.226;2023-06-24T23:24:16;7.07;;;5.77;;
25497;SDS011;13406;53.380;7.226;2023-06-24T23:26:46;8.20;;;6.47;;
25497;SDS011;13406;53.380;7.226;2023-06-24T23:29:15;8.53;;;6.17;;
25497;SDS011;13406;53.380;7.226;2023-06-24T23:31:46;8.97;;;7.27;;
25497;SDS011;13406;53.380;7.226;2023-06-24T23:34:12;9.33;;;6.93;;
25497;SDS011;13406;53.380;7.226;2023-06-24T23:36:38;8.70;;;6.90;;
25497;SDS011;13406;53.380;7.226;2023-06-24T23:39:03;8.33;;;7.17;;
25497;SDS011;13406;53.380;7.226;2023-06-24T23:41:29;9.33;;;7.00;;
25497;SDS011;13406;53.380;7.226;2023-06-24T23:43:55;8.23;;;6.97;;
25497;SDS011;13406;53.380;7.226;2023-06-24T23:46:21;10.90;;;6.57;;
25497;SDS011;13406;53.380;7.226;2023-06-24T23:48:46;9.00;;;6.80;;
25497;SDS011;13406;53.380;7.226;2023-06-24T23:51:12;9.43;;;6.67;;
25497;SDS011;13406;53.380;7.226;2023-06-24T23:53:37;9.33;;;7.07;;
25497;SDS011;13406;53.380;7.226;2023-06-24T23:56:03;9.43;;;7.37;;
25497;SDS011;13406;53.380;7.226;2023-06-24T23:58:28;11.17;;;6.90;;
